sensor_id;sensor_type;location;lat;lon;timestamp;P1;durP1;ratioP1;P2;durP2;ratioP2
41436;SDS011;27178;49.460;10.850;2024-03-23T00:55:01;5.45;;;4.95;;
41436;SDS011;27178;49.460;10.850;2024-03-23T00:57:27;5.03;;;4.53;;
41436;SDS011;27178;49.460;10.850;2024-03-23T00:59:55;5.32;;;4.82;;
41436;SDS011;27178;49.460;10.850;2024-03-23T01:02:21;5.07;;;4.57;;
41436;SDS011;27178;49.460;10.850;2024-03-23T01:04:48;5.28;;;4.78;;
41436;SDS011;27178;49.460;10.850;2024-03-23T01:07:15;4.65;;;4.20;;
41436;SDS011;27178;49.460;10.850;2024-03-23T01:09:43;4.57;;;4.18;;
41436;SDS011;27178;49.460;10.850;2024-03-23T01:12:09;4.57;;;4.13;;
41436;SDS011;27178;49.460;10.850;2024-03-23T01:14:37;5.68;;;4.47;;
41436;SDS011;27178;49.460;10.850;2024-03-23T01:17:03;5.05;;;4.55;;
41436;SDS011;27178;49.460;10.850;2024-03-23T01:19:31;4.63;;;4.22;;
41436;SDS011;27178;49.460;10.850;2024-03-23T01:21:57;4.50;;;4.10;;
41436;SDS011;27178;49.460;10.850;2024-03-23T01:24:24;5.95;;;4.28;;
41436;SDS011;27178;49.460;10.850;2024-03-23T01:26:52;4.82;;;4.40;;
41436;SDS011;27178;49.460;10.850;2024-03-23T01:29:19;4.65;;;4.25;;
41436;SDS011;27178;49.460;10.850;2024-03-23T01:31:45;4.95;;;4.45;;
41436;SDS011;27178;49.460;10.850;2024-03-23T01:34:13;4.88;;;4.32;;
41436;SDS011;27178;49.460;10.850;2024-03-23T01:36:39;5.00;;;4.45;;
41436;SDS011;27178;49.460;10.850;2024-03-23T01:39:06;4.25;;;3.85;;
41436;SDS011;27178;49.460;10.850;2024-03-23T01:41:35;4.95;;;4.55;;
41436;SDS011;27178;49.460;10.850;2024-03-23T01:44:05;5.43;;;4.93;;
41436;SDS011;27178;49.460;10.850;2024-03-23T01:46:33;5.32;;;4.93;;
41436;SDS011;27178;49.460;10.850;2024-03-23T01:49:00;4.90;;;4.50;;
41436;SDS011;27178;49.460;10.850;2024-03-23T01:51:27;5.60;;;4.95;;
41436;SDS011;27178;49.460;10.850;2024-03-23T01:53:55;5.30;;;3.90;;
41436;SDS011;27178;49.460;10.850;2024-03-23T01:56:22;4.72;;;4.30;;
41436;SDS011;27178;49.460;10.850;2024-03-23T01:58:50;5.20;;;4.70;;
41436;SDS011;27178;49.460;10.850;2024-03-23T02:01:17;4.97;;;4.50;;
41436;SDS011;27178;49.460;10.850;2024-03-23T02:03:45;5.40;;;4.90;;
41436;SDS011;27178;49.460;10.850;2024-03-23T02:06:11;5.25;;;4.40;;
41436;SDS011;27178;49.460;10.850;2024-03-23T02:08:38;5.10;;;4.60;;
41436;SDS011;27178;49.460;10.850;2024-03-23T02:11:05;6.05;;;4.68;;
41436;SDS011;27178;49.460;10.850;2024-03-23T02:13:32;5.03;;;4.63;;
41436;SDS011;27178;49.460;10.850;2024-03-23T02:15:59;5.22;;;4.72;;
41436;SDS011;27178;49.460;10.850;2024-03-23T02:18:27;5.63;;;5.13;;
41436;SDS011;27178;49.460;10.850;2024-03-23T02:20:54;6.28;;;5.68;;
41436;SDS011;27178;49.460;10.850;2024-03-23T02:23:22;6.13;;;5.60;;
41436;SDS011;27178;49.460;10.850;2024-03-23T02:25:49;5.90;;;5.40;;
41436;SDS011;27178;49.460;10.850;2024-03-23T02:28:18;5.38;;;4.88;;
41436;SDS011;27178;49.460;10.850;2024-03-23T02:30:45;6.85;;;6.18;;
41436;SDS011;27178;49.460;10.850;2024-03-23T02:33:12;6.10;;;5.60;;
41436;SDS011;27178;49.460;10.850;2024-03-23T02:35:38;5.93;;;5.40;;
41436;SDS011;27178;49.460;10.850;2024-03-23T02:38:05;6.28;;;5.68;;
41436;SDS011;27178;49.460;10.850;2024-03-23T02:40:33;6.05;;;5.45;;
41436;SDS011;27178;49.460;10.850;2024-03-23T02:43:02;5.40;;;4.90;;
41436;SDS011;27178;49.460;10.850;2024-03-23T02:45:29;6.15;;;5.65;;
41436;SDS011;27178;49.460;10.850;2024-03-23T02:47:56;6.53;;;5.93;;
41436;SDS011;27178;49.460;10.850;2024-03-23T02:50:22;5.45;;;5.00;;
41436;SDS011;27178;49.460;10.850;2024-03-23T02:52:50;6.97;;;5.60;;
41436;SDS011;27178;49.460;10.850;2024-03-23T02:55:16;6.88;;;6.22;;
41436;SDS011;27178;49.460;10.850;2024-03-23T02:57:45;5.75;;;5.20;;
41436;SDS011;27178;49.460;10.850;2024-03-23T03:00:12;5.90;;;5.05;;
41436;SDS011;27178;49.460;10.850;2024-03-23T03:02:40;5.90;;;5.40;;
41436;SDS011;27178;49.460;10.850;2024-03-23T03:05:06;5.90;;;5.30;;
41436;SDS011;27178;49.460;10.850;2024-03-23T03:07:34;6.28;;;5.50;;
41436;SDS011;27178;49.460;10.850;2024-03-23T03:10:00;5.10;;;4.70;;
41436;SDS011;27178;49.460;10.850;2024-03-23T03:12:27;5.95;;;5.35;;
41436;SDS011;27178;49.460;10.850;2024-03-23T03:14:55;6.18;;;5.30;;
41436;SDS011;27178;49.460;10.850;2024-03-23T03:17:23;5.50;;;5.00;;
41436;SDS011;27178;49.460;10.850;2024-03-23T03:19:49;6.50;;;4.82;;
41436;SDS011;27178;49.460;10.850;2024-03-23T03:22:21;5.45;;;4.90;;
41436;SDS011;27178;49.460;10.850;2024-03-23T03:24:47;5.53;;;4.75;;
41436;SDS011;27178;49.460;10.850;2024-03-23T03:27:15;5.45;;;4.80;;
41436;SDS011;27178;49.460;10.850;2024-03-23T03:29:41;5.25;;;4.85;;
41436;SDS011;27178;49.460;10.850;2024-03-23T03:32:10;5.57;;;4.93;;
41436;SDS011;27178;49.460;10.850;2024-03-23T03:34:37;7.22;;;4.75;;
41436;SDS011;27178;49.460;10.850;2024-03-23T03:37:04;5.13;;;4.63;;
41436;SDS011;27178;49.460;10.850;2024-03-23T03:39:30;5.95;;;5.45;;
41436;SDS011;27178;49.460;10.850;2024-03-23T03:41:58;5.05;;;4.57;;
41436;SDS011;27178;49.460;10.850;2024-03-23T03:44:26;5.63;;;4.78;;
41436;SDS011;27178;49.460;10.850;2024-03-23T03:46:53;5.82;;;4.35;;
41436;SDS011;27178;49.460;10.850;2024-03-23T03:49:21;5.72;;;5.13;;
41436;SDS011;27178;49.460;10.850;2024-03-23T03:51:48;4.82;;;4.35;;
41436;SDS011;27178;49.460;10.850;2024-03-23T03:54:14;5.18;;;4.70;;
41436;SDS011;27178;49.460;10.850;2024-03-23T03:56:42;5.28;;;4.78;;
41436;SDS011;27178;49.460;10.850;2024-03-23T03:59:08;5.82;;;5.30;;
41436;SDS011;27178;49.460;10.850;2024-03-23T04:01:36;5.70;;;5.05;;
41436;SDS011;27178;49.460;10.850;2024-03-23T04:04:03;5.65;;;5.15;;
41436;SDS011;27178;49.460;10.850;2024-03-23T04:06:31;5.88;;;5.38;;
41436;SDS011;27178;49.460;10.850;2024-03-23T04:08:58;6.20;;;5.60;;
41436;SDS011;27178;49.460;10.850;2024-03-23T04:11:25;6.20;;;5.63;;
41436;SDS011;27178;49.460;10.850;2024-03-23T04:13:52;6.13;;;4.85;;
41436;SDS011;27178;49.460;10.850;2024-03-23T04:16:24;8.15;;;7.35;;
41436;SDS011;27178;49.460;10.850;2024-03-23T04:18:53;11.00;;;6.25;;
41436;SDS011;27178;49.460;10.850;2024-03-23T04:21:19;6.38;;;5.78;;
41436;SDS011;27178;49.460;10.850;2024-03-23T04:23:49;6.20;;;5.60;;
41436;SDS011;27178;49.460;10.850;2024-03-23T04:26:15;5.38;;;4.88;;
41436;SDS011;27178;49.460;10.850;2024-03-23T04:28:43;5.22;;;4.78;;
41436;SDS011;27178;49.460;10.850;2024-03-23T04:31:09;6.72;;;5.20;;
41436;SDS011;27178;49.460;10.850;2024-03-23T04:33:36;5.85;;;5.25;;
41436;SDS011;27178;49.460;10.850;2024-03-23T04:36:03;5.57;;;5.07;;
41436;SDS011;27178;49.460;10.850;2024-03-23T04:38:32;5.00;;;4.50;;
41436;SDS011;27178;49.460;10.850;2024-03-23T04:41:01;5.43;;;4.95;;
41436;SDS011;27178;49.460;10.850;2024-03-23T04:43:29;6.07;;;5.40;;
41436;SDS011;27178;49.460;10.850;2024-03-23T04:45:56;4.82;;;4.38;;
41436;SDS011;27178;49.460;10.850;2024-03-23T04:48:24;5.07;;;4.68;;
41436;SDS011;27178;49.460;10.850;2024-03-23T04:50:54;5.25;;;4.63;;
41436;SDS011;27178;49.460;10.850;2024-03-23T04:53:23;6.45;;;4.32;;
41436;SDS011;27178;49.460;10.850;2024-03-23T04:55:53;5.47;;;4.97;;
41436;SDS011;27178;49.460;10.850;2024-03-23T04:58:22;5.18;;;4.68;;
41436;SDS011;27178;49.460;10.850;2024-03-23T05:00:52;5.30;;;4.80;;
41436;SDS011;27178;49.460;10.850;2024-03-23T05:03:20;5.00;;;4.57;;
41436;SDS011;27178;49.460;10.850;2024-03-23T05:05:47;6.75;;;4.93;;
41436;SDS011;27178;49.460;10.850;2024-03-23T05:08:14;4.82;;;4.40;;
41436;SDS011;27178;49.460;10.850;2024-03-23T05:10:41;4.85;;;4.45;;
41436;SDS011;27178;49.460;10.850;2024-03-23T05:13:09;5.00;;;4.60;;
41436;SDS011;27178;49.460;10.850;2024-03-23T05:15:37;5.38;;;4.60;;
41436;SDS011;27178;49.460;10.850;2024-03-23T05:18:04;4.30;;;3.90;;
41436;SDS011;27178;49.460;10.850;2024-03-23T05:20:31;4.45;;;4.07;;
41436;SDS011;27178;49.460;10.850;2024-03-23T05:22:59;4.68;;;4.28;;
41436;SDS011;27178;49.460;10.850;2024-03-23T05:25:25;4.90;;;4.50;;
41436;SDS011;27178;49.460;10.850;2024-03-23T05:27:53;4.82;;;4.38;;
41436;SDS011;27178;49.460;10.850;2024-03-23T05:30:20;5.72;;;4.20;;
41436;SDS011;27178;49.460;10.850;2024-03-23T05:32:48;4.35;;;3.95;;
41436;SDS011;27178;49.460;10.850;2024-03-23T05:35:14;4.38;;;4.07;;
41436;SDS011;27178;49.460;10.850;2024-03-23T05:37:42;4.93;;;4.40;;
41436;SDS011;27178;49.460;10.850;2024-03-23T05:40:09;4.50;;;4.10;;
41436;SDS011;27178;49.460;10.850;2024-03-23T05:42:38;4.30;;;3.90;;
41436;SDS011;27178;49.460;10.850;2024-03-23T05:45:04;4.20;;;3.80;;
41436;SDS011;27178;49.460;10.850;2024-03-23T05:47:33;4.25;;;3.55;;
41436;SDS011;27178;49.460;10.850;2024-03-23T05:50:01;4.07;;;3.67;;
41436;SDS011;27178;49.460;10.850;2024-03-23T05:52:29;4.65;;;3.63;;
41436;SDS011;27178;49.460;10.850;2024-03-23T05:54:55;4.22;;;3.85;;
41436;SDS011;27178;49.460;10.850;2024-03-23T05:57:24;3.78;;;3.45;;
41436;SDS011;27178;49.460;10.850;2024-03-23T05:59:51;4.15;;;3.85;;
41436;SDS011;27178;49.460;10.850;2024-03-23T06:02:19;3.92;;;3.25;;
41436;SDS011;27178;49.460;10.850;2024-03-23T06:04:46;3.47;;;3.28;;
41436;SDS011;27178;49.460;10.850;2024-03-23T06:07:15;4.03;;;3.60;;
41436;SDS011;27178;49.460;10.850;2024-03-23T06:09:41;3.67;;;3.38;;
41436;SDS011;27178;49.460;10.850;2024-03-23T06:12:08;4.28;;;3.88;;
41436;SDS011;27178;49.460;10.850;2024-03-23T06:14:35;5.38;;;3.45;;
41436;SDS011;27178;49.460;10.850;2024-03-23T06:17:02;3.60;;;3.30;;
41436;SDS011;27178;49.460;10.850;2024-03-23T06:19:28;4.53;;;4.13;;
41436;SDS011;27178;49.460;10.850;2024-03-23T06:21:56;6.20;;;4.22;;
41436;SDS011;27178;49.460;10.850;2024-03-23T06:24:23;3.97;;;3.67;;
41436;SDS011;27178;49.460;10.850;2024-03-23T06:26:51;6.10;;;4.20;;
41436;SDS011;27178;49.460;10.850;2024-03-23T06:29:17;6.95;;;4.63;;
41436;SDS011;27178;49.460;10.850;2024-03-23T06:31:51;5.57;;;4.07;;
41436;SDS011;27178;49.460;10.850;2024-03-23T06:34:19;4.65;;;4.25;;
41436;SDS011;27178;49.460;10.850;2024-03-23T06:36:47;4.82;;;4.43;;
41436;SDS011;27178;49.460;10.850;2024-03-23T06:39:14;5.90;;;5.40;;
41436;SDS011;27178;49.460;10.850;2024-03-23T06:41:46;5.70;;;5.13;;
41436;SDS011;27178;49.460;10.850;2024-03-23T06:44:18;6.75;;;6.05;;
41436;SDS011;27178;49.460;10.850;2024-03-23T06:46:45;6.55;;;5.95;;
41436;SDS011;27178;49.460;10.850;2024-03-23T06:49:11;5.82;;;5.32;;
41436;SDS011;27178;49.460;10.850;2024-03-23T06:51:39;5.68;;;5.18;;
41436;SDS011;27178;49.460;10.850;2024-03-23T06:54:05;6.78;;;6.03;;
41436;SDS011;27178;49.460;10.850;2024-03-23T06:56:32;7.10;;;5.65;;
41436;SDS011;27178;49.460;10.850;2024-03-23T06:59:00;8.90;;;6.38;;
41436;SDS011;27178;49.460;10.850;2024-03-23T07:01:27;6.30;;;5.65;;
41436;SDS011;27178;49.460;10.850;2024-03-23T07:03:54;8.00;;;6.15;;
41436;SDS011;27178;49.460;10.850;2024-03-23T07:06:21;5.45;;;4.95;;
41436;SDS011;27178;49.460;10.850;2024-03-23T07:08:48;5.15;;;4.70;;
41436;SDS011;27178;49.460;10.850;2024-03-23T07:11:18;5.35;;;4.85;;
41436;SDS011;27178;49.460;10.850;2024-03-23T07:13:45;5.25;;;4.75;;
41436;SDS011;27178;49.460;10.850;2024-03-23T07:16:14;5.00;;;4.60;;
41436;SDS011;27178;49.460;10.850;2024-03-23T07:18:41;4.70;;;4.30;;
41436;SDS011;27178;49.460;10.850;2024-03-23T07:21:08;4.93;;;4.53;;
41436;SDS011;27178;49.460;10.850;2024-03-23T07:23:34;5.70;;;5.03;;
41436;SDS011;27178;49.460;10.850;2024-03-23T07:26:02;5.70;;;4.82;;
41436;SDS011;27178;49.460;10.850;2024-03-23T07:28:29;5.68;;;4.82;;
41436;SDS011;27178;49.460;10.850;2024-03-23T07:31:02;4.72;;;4.28;;
41436;SDS011;27178;49.460;10.850;2024-03-23T07:33:31;5.35;;;4.85;;
41436;SDS011;27178;49.460;10.850;2024-03-23T07:35:59;5.47;;;4.97;;
41436;SDS011;27178;49.460;10.850;2024-03-23T07:38:26;6.07;;;5.45;;
41436;SDS011;27178;49.460;10.850;2024-03-23T07:41:02;6.00;;;5.25;;
41436;SDS011;27178;49.460;10.850;2024-03-23T07:43:29;6.15;;;5.55;;
41436;SDS011;27178;49.460;10.850;2024-03-23T07:45:56;5.85;;;5.25;;
41436;SDS011;27178;49.460;10.850;2024-03-23T07:48:23;5.65;;;5.03;;
41436;SDS011;27178;49.460;10.850;2024-03-23T07:50:59;5.47;;;4.95;;
41436;SDS011;27178;49.460;10.850;2024-03-23T07:53:25;4.70;;;4.30;;
41436;SDS011;27178;49.460;10.850;2024-03-23T07:55:54;4.95;;;4.55;;
41436;SDS011;27178;49.460;10.850;2024-03-23T07:58:21;6.05;;;5.45;;
41436;SDS011;27178;49.460;10.850;2024-03-23T08:00:49;5.10;;;4.63;;
41436;SDS011;27178;49.460;10.850;2024-03-23T08:03:15;5.65;;;5.05;;
41436;SDS011;27178;49.460;10.850;2024-03-23T08:05:43;5.85;;;4.93;;
41436;SDS011;27178;49.460;10.850;2024-03-23T08:08:11;5.10;;;4.60;;
41436;SDS011;27178;49.460;10.850;2024-03-23T08:10:46;4.00;;;3.55;;
41436;SDS011;27178;49.460;10.850;2024-03-23T08:13:13;3.75;;;3.22;;
41436;SDS011;27178;49.460;10.850;2024-03-23T08:15:40;2.60;;;2.40;;
41436;SDS011;27178;49.460;10.850;2024-03-23T08:18:07;3.13;;;2.90;;
41436;SDS011;27178;49.460;10.850;2024-03-23T08:20:34;2.55;;;2.35;;
41436;SDS011;27178;49.460;10.850;2024-03-23T08:23:01;2.35;;;2.15;;
41436;SDS011;27178;49.460;10.850;2024-03-23T08:25:31;3.20;;;1.92;;
41436;SDS011;27178;49.460;10.850;2024-03-23T08:27:58;1.88;;;1.77;;
41436;SDS011;27178;49.460;10.850;2024-03-23T08:30:25;1.90;;;1.80;;
41436;SDS011;27178;49.460;10.850;2024-03-23T08:32:54;1.50;;;1.40;;
41436;SDS011;27178;49.460;10.850;2024-03-23T08:35:21;1.63;;;1.40;;
41436;SDS011;27178;49.460;10.850;2024-03-23T08:37:48;1.85;;;1.75;;
41436;SDS011;27178;49.460;10.850;2024-03-23T08:40:15;1.65;;;1.55;;
41436;SDS011;27178;49.460;10.850;2024-03-23T08:42:43;1.80;;;1.70;;
41436;SDS011;27178;49.460;10.850;2024-03-23T08:45:10;1.52;;;1.42;;
41436;SDS011;27178;49.460;10.850;2024-03-23T08:47:36;1.60;;;1.50;;
41436;SDS011;27178;49.460;10.850;2024-03-23T08:50:04;2.08;;;1.70;;
41436;SDS011;27178;49.460;10.850;2024-03-23T08:52:31;1.52;;;1.42;;
41436;SDS011;27178;49.460;10.850;2024-03-23T08:54:58;1.55;;;1.45;;
41436;SDS011;27178;49.460;10.850;2024-03-23T08:57:24;1.52;;;1.42;;
41436;SDS011;27178;49.460;10.850;2024-03-23T08:59:53;1.10;;;1.10;;
41436;SDS011;27178;49.460;10.850;2024-03-23T09:02:19;1.35;;;1.25;;
41436;SDS011;27178;49.460;10.850;2024-03-23T09:04:47;1.60;;;1.40;;
41436;SDS011;27178;49.460;10.850;2024-03-23T09:07:13;1.85;;;1.35;;
41436;SDS011;27178;49.460;10.850;2024-03-23T09:09:41;1.10;;;1.10;;
41436;SDS011;27178;49.460;10.850;2024-03-23T09:12:07;1.80;;;1.00;;
41436;SDS011;27178;49.460;10.850;2024-03-23T09:14:36;0.82;;;0.82;;
41436;SDS011;27178;49.460;10.850;2024-03-23T09:17:04;1.88;;;0.80;;
41436;SDS011;27178;49.460;10.850;2024-03-23T09:19:32;0.70;;;0.70;;
41436;SDS011;27178;49.460;10.850;2024-03-23T09:21:58;0.50;;;0.50;;
41436;SDS011;27178;49.460;10.850;2024-03-23T09:24:25;0.70;;;0.70;;
41436;SDS011;27178;49.460;10.850;2024-03-23T09:26:52;0.50;;;0.50;;
41436;SDS011;27178;49.460;10.850;2024-03-23T09:29:19;0.68;;;0.68;;
41436;SDS011;27178;49.460;10.850;2024-03-23T09:31:45;0.30;;;0.30;;
41436;SDS011;27178;49.460;10.850;2024-03-23T09:34:14;0.43;;;0.43;;
41436;SDS011;27178;49.460;10.850;2024-03-23T09:36:40;0.40;;;0.40;;
41436;SDS011;27178;49.460;10.850;2024-03-23T09:39:08;0.50;;;0.50;;
41436;SDS011;27178;49.460;10.850;2024-03-23T09:41:34;0.60;;;0.60;;
41436;SDS011;27178;49.460;10.850;2024-03-23T09:44:02;0.30;;;0.30;;
41436;SDS011;27178;49.460;10.850;2024-03-23T09:46:28;0.47;;;0.32;;
41436;SDS011;27178;49.460;10.850;2024-03-23T09:48:59;0.40;;;0.40;;
41436;SDS011;27178;49.460;10.850;2024-03-23T09:51:28;0.20;;;0.20;;
41436;SDS011;27178;49.460;10.850;2024-03-23T09:53:55;0.10;;;0.10;;
41436;SDS011;27178;49.460;10.850;2024-03-23T09:56:22;0.22;;;0.22;;
41436;SDS011;27178;49.460;10.850;2024-03-23T09:58:50;0.60;;;0.60;;
41436;SDS011;27178;49.460;10.850;2024-03-23T10:01:17;0.40;;;0.40;;
41436;SDS011;27178;49.460;10.850;2024-03-23T10:03:44;0.57;;;0.52;;
41436;SDS011;27178;49.460;10.850;2024-03-23T10:06:11;0.38;;;0.38;;
41436;SDS011;27178;49.460;10.850;2024-03-23T10:08:39;0.70;;;0.43;;
41436;SDS011;27178;49.460;10.850;2024-03-23T10:11:12;0.50;;;0.50;;
41436;SDS011;27178;49.460;10.850;2024-03-23T10:13:41;0.82;;;0.50;;
41436;SDS011;27178;49.460;10.850;2024-03-23T10:16:08;0.60;;;0.60;;
41436;SDS011;27178;49.460;10.850;2024-03-23T10:18:39;1.00;;;0.60;;
41436;SDS011;27178;49.460;10.850;2024-03-23T10:21:09;0.57;;;0.57;;
41436;SDS011;27178;49.460;10.850;2024-03-23T10:23:37;0.70;;;0.70;;
41436;SDS011;27178;49.460;10.850;2024-03-23T10:26:13;0.82;;;0.55;;
41436;SDS011;27178;49.460;10.850;2024-03-23T10:28:52;0.77;;;0.77;;
41436;SDS011;27178;49.460;10.850;2024-03-23T10:31:20;1.33;;;1.20;;
41436;SDS011;27178;49.460;10.850;2024-03-23T10:33:48;2.38;;;1.20;;
41436;SDS011;27178;49.460;10.850;2024-03-23T10:36:17;1.80;;;1.40;;
41436;SDS011;27178;49.460;10.850;2024-03-23T10:38:47;1.20;;;1.08;;
41436;SDS011;27178;49.460;10.850;2024-03-23T10:41:15;1.42;;;1.33;;
41436;SDS011;27178;49.460;10.850;2024-03-23T10:43:43;1.48;;;1.27;;
41436;SDS011;27178;49.460;10.850;2024-03-23T10:46:11;1.38;;;1.25;;
41436;SDS011;27178;49.460;10.850;2024-03-23T10:48:39;2.92;;;1.45;;
41436;SDS011;27178;49.460;10.850;2024-03-23T10:51:05;1.52;;;1.40;;
41436;SDS011;27178;49.460;10.850;2024-03-23T10:53:34;1.75;;;1.55;;
41436;SDS011;27178;49.460;10.850;2024-03-23T10:56:04;1.98;;;1.40;;
41436;SDS011;27178;49.460;10.850;2024-03-23T10:58:33;3.70;;;1.30;;
41436;SDS011;27178;49.460;10.850;2024-03-23T11:01:03;2.00;;;1.30;;
41436;SDS011;27178;49.460;10.850;2024-03-23T11:03:31;3.03;;;1.42;;
41436;SDS011;27178;49.460;10.850;2024-03-23T11:06:02;1.80;;;1.67;;
41436;SDS011;27178;49.460;10.850;2024-03-23T11:08:31;2.10;;;1.90;;
41436;SDS011;27178;49.460;10.850;2024-03-23T11:11:12;2.28;;;1.67;;
41436;SDS011;27178;49.460;10.850;2024-03-23T11:13:41;2.50;;;1.60;;
41436;SDS011;27178;49.460;10.850;2024-03-23T11:16:14;3.17;;;2.03;;
41436;SDS011;27178;49.460;10.850;2024-03-23T11:18:42;3.55;;;2.10;;
41436;SDS011;27178;49.460;10.850;2024-03-23T11:21:09;2.80;;;2.05;;
41436;SDS011;27178;49.460;10.850;2024-03-23T11:23:37;4.10;;;2.00;;
41436;SDS011;27178;49.460;10.850;2024-03-23T11:26:06;3.90;;;1.80;;
41436;SDS011;27178;49.460;10.850;2024-03-23T11:28:36;4.00;;;2.63;;
41436;SDS011;27178;49.460;10.850;2024-03-23T11:31:08;1.92;;;1.70;;
41436;SDS011;27178;49.460;10.850;2024-03-23T11:33:36;3.60;;;2.08;;
41436;SDS011;27178;49.460;10.850;2024-03-23T11:36:03;2.33;;;1.90;;
41436;SDS011;27178;49.460;10.850;2024-03-23T11:38:31;5.18;;;2.17;;
41436;SDS011;27178;49.460;10.850;2024-03-23T11:41:03;2.53;;;2.03;;
41436;SDS011;27178;49.460;10.850;2024-03-23T11:43:30;2.10;;;1.88;;
41436;SDS011;27178;49.460;10.850;2024-03-23T11:45:58;3.55;;;1.88;;
41436;SDS011;27178;49.460;10.850;2024-03-23T11:48:28;3.20;;;1.90;;
41436;SDS011;27178;49.460;10.850;2024-03-23T11:50:57;2.90;;;1.90;;
41436;SDS011;27178;49.460;10.850;2024-03-23T11:53:25;5.00;;;2.05;;
41436;SDS011;27178;49.460;10.850;2024-03-23T11:55:53;2.17;;;1.98;;
41436;SDS011;27178;49.460;10.850;2024-03-23T11:58:22;4.10;;;2.40;;
41436;SDS011;27178;49.460;10.850;2024-03-23T12:00:50;3.72;;;2.08;;
41436;SDS011;27178;49.460;10.850;2024-03-23T12:03:19;2.13;;;1.83;;
41436;SDS011;27178;49.460;10.850;2024-03-23T12:05:47;2.83;;;1.90;;
41436;SDS011;27178;49.460;10.850;2024-03-23T12:08:22;2.97;;;1.83;;
41436;SDS011;27178;49.460;10.850;2024-03-23T12:10:50;4.15;;;1.98;;
41436;SDS011;27178;49.460;10.850;2024-03-23T12:13:18;2.13;;;1.83;;
41436;SDS011;27178;49.460;10.850;2024-03-23T12:15:46;6.22;;;1.88;;
41436;SDS011;27178;49.460;10.850;2024-03-23T12:18:14;3.22;;;1.77;;
41436;SDS011;27178;49.460;10.850;2024-03-23T12:20:41;4.72;;;2.10;;
41436;SDS011;27178;49.460;10.850;2024-03-23T12:23:09;2.65;;;2.00;;
41436;SDS011;27178;49.460;10.850;2024-03-23T12:25:37;4.82;;;2.17;;
41436;SDS011;27178;49.460;10.850;2024-03-23T12:28:05;3.95;;;2.30;;
41436;SDS011;27178;49.460;10.850;2024-03-23T12:30:33;4.90;;;2.67;;
41436;SDS011;27178;49.460;10.850;2024-03-23T12:33:02;2.88;;;2.05;;
41436;SDS011;27178;49.460;10.850;2024-03-23T12:35:28;2.80;;;2.30;;
41436;SDS011;27178;49.460;10.850;2024-03-23T12:37:57;5.30;;;2.63;;
41436;SDS011;27178;49.460;10.850;2024-03-23T12:40:24;4.88;;;2.10;;
41436;SDS011;27178;49.460;10.850;2024-03-23T12:42:52;6.05;;;2.65;;
41436;SDS011;27178;49.460;10.850;2024-03-23T12:45:18;4.95;;;2.70;;
41436;SDS011;27178;49.460;10.850;2024-03-23T12:47:45;5.78;;;2.28;;
41436;SDS011;27178;49.460;10.850;2024-03-23T12:50:11;5.55;;;2.65;;
41436;SDS011;27178;49.460;10.850;2024-03-23T12:52:39;4.65;;;2.58;;
41436;SDS011;27178;49.460;10.850;2024-03-23T12:55:07;3.72;;;2.65;;
41436;SDS011;27178;49.460;10.850;2024-03-23T12:57:34;4.00;;;2.30;;
41436;SDS011;27178;49.460;10.850;2024-03-23T13:00:01;4.30;;;2.50;;
41436;SDS011;27178;49.460;10.850;2024-03-23T13:02:29;3.30;;;2.38;;
41436;SDS011;27178;49.460;10.850;2024-03-23T13:04:57;3.80;;;2.50;;
41436;SDS011;27178;49.460;10.850;2024-03-23T13:07:24;3.85;;;2.60;;
41436;SDS011;27178;49.460;10.850;2024-03-23T13:09:51;5.32;;;2.47;;
41436;SDS011;27178;49.460;10.850;2024-03-23T13:12:20;3.15;;;2.17;;
41436;SDS011;27178;49.460;10.850;2024-03-23T13:14:46;5.88;;;2.60;;
41436;SDS011;27178;49.460;10.850;2024-03-23T13:17:14;3.17;;;2.00;;
41436;SDS011;27178;49.460;10.850;2024-03-23T13:19:40;3.58;;;2.28;;
41436;SDS011;27178;49.460;10.850;2024-03-23T13:22:07;3.72;;;2.22;;
41436;SDS011;27178;49.460;10.850;2024-03-23T13:24:36;4.32;;;2.80;;
41436;SDS011;27178;49.460;10.850;2024-03-23T13:27:05;2.90;;;2.00;;
41436;SDS011;27178;49.460;10.850;2024-03-23T13:29:34;5.55;;;2.58;;
41436;SDS011;27178;49.460;10.850;2024-03-23T13:32:03;3.03;;;1.92;;
41436;SDS011;27178;49.460;10.850;2024-03-23T13:34:30;7.75;;;2.85;;
41436;SDS011;27178;49.460;10.850;2024-03-23T13:36:58;3.25;;;2.45;;
41436;SDS011;27178;49.460;10.850;2024-03-23T13:39:25;3.75;;;2.28;;
41436;SDS011;27178;49.460;10.850;2024-03-23T13:41:53;3.88;;;2.35;;
41436;SDS011;27178;49.460;10.850;2024-03-23T13:44:20;4.20;;;2.08;;
41436;SDS011;27178;49.460;10.850;2024-03-23T13:46:49;3.40;;;2.40;;
41436;SDS011;27178;49.460;10.850;2024-03-23T13:49:24;4.13;;;2.20;;
41436;SDS011;27178;49.460;10.850;2024-03-23T13:51:53;3.67;;;2.28;;
41436;SDS011;27178;49.460;10.850;2024-03-23T13:54:19;4.10;;;2.15;;
41436;SDS011;27178;49.460;10.850;2024-03-23T13:56:48;3.33;;;2.03;;
41436;SDS011;27178;49.460;10.850;2024-03-23T13:59:14;4.32;;;2.10;;
41436;SDS011;27178;49.460;10.850;2024-03-23T14:01:42;3.78;;;2.20;;
41436;SDS011;27178;49.460;10.850;2024-03-23T14:04:10;2.88;;;1.77;;
41436;SDS011;27178;49.460;10.850;2024-03-23T14:06:38;2.75;;;1.90;;
41436;SDS011;27178;49.460;10.850;2024-03-23T14:09:04;2.58;;;1.80;;
41436;SDS011;27178;49.460;10.850;2024-03-23T14:11:34;3.78;;;2.13;;
41436;SDS011;27178;49.460;10.850;2024-03-23T14:14:00;3.55;;;2.10;;
41436;SDS011;27178;49.460;10.850;2024-03-23T14:16:29;3.70;;;2.20;;
41436;SDS011;27178;49.460;10.850;2024-03-23T14:18:55;4.05;;;2.13;;
41436;SDS011;27178;49.460;10.850;2024-03-23T14:21:23;3.80;;;2.20;;
41436;SDS011;27178;49.460;10.850;2024-03-23T14:23:50;3.67;;;1.98;;
41436;SDS011;27178;49.460;10.850;2024-03-23T14:26:17;4.85;;;2.20;;
41436;SDS011;27178;49.460;10.850;2024-03-23T14:28:43;2.80;;;1.90;;
41436;SDS011;27178;49.460;10.850;2024-03-23T14:31:10;3.47;;;1.98;;
41436;SDS011;27178;49.460;10.850;2024-03-23T14:33:36;2.67;;;1.75;;
41436;SDS011;27178;49.460;10.850;2024-03-23T14:36:07;4.07;;;1.98;;
41436;SDS011;27178;49.460;10.850;2024-03-23T14:38:35;10.32;;;2.42;;
41436;SDS011;27178;49.460;10.850;2024-03-23T14:41:02;4.40;;;1.98;;
41436;SDS011;27178;49.460;10.850;2024-03-23T14:43:29;3.90;;;1.95;;
41436;SDS011;27178;49.460;10.850;2024-03-23T14:46:06;5.20;;;2.10;;
41436;SDS011;27178;49.460;10.850;2024-03-23T14:48:33;3.08;;;1.90;;
41436;SDS011;27178;49.460;10.850;2024-03-23T14:51:00;2.35;;;1.80;;
41436;SDS011;27178;49.460;10.850;2024-03-23T14:53:27;5.35;;;2.28;;
41436;SDS011;27178;49.460;10.850;2024-03-23T14:55:56;3.80;;;2.50;;
41436;SDS011;27178;49.460;10.850;2024-03-23T14:58:23;5.68;;;2.53;;
41436;SDS011;27178;49.460;10.850;2024-03-23T15:00:50;3.58;;;2.20;;
41436;SDS011;27178;49.460;10.850;2024-03-23T15:03:17;2.72;;;2.20;;
41436;SDS011;27178;49.460;10.850;2024-03-23T15:05:51;4.10;;;2.53;;
41436;SDS011;27178;49.460;10.850;2024-03-23T15:08:18;2.40;;;1.90;;
41436;SDS011;27178;49.460;10.850;2024-03-23T15:10:46;5.13;;;2.47;;
41436;SDS011;27178;49.460;10.850;2024-03-23T15:13:13;3.10;;;2.10;;
41436;SDS011;27178;49.460;10.850;2024-03-23T15:15:41;3.08;;;2.05;;
41436;SDS011;27178;49.460;10.850;2024-03-23T15:18:09;2.10;;;1.88;;
41436;SDS011;27178;49.460;10.850;2024-03-23T15:20:38;4.43;;;2.60;;
41436;SDS011;27178;49.460;10.850;2024-03-23T15:23:04;2.75;;;1.92;;
41436;SDS011;27178;49.460;10.850;2024-03-23T15:25:31;2.42;;;1.70;;
41436;SDS011;27178;49.460;10.850;2024-03-23T15:27:57;4.47;;;2.08;;
41436;SDS011;27178;49.460;10.850;2024-03-23T15:30:26;3.63;;;2.00;;